• Join FlightAware (Why Join?)
  • Login
  • US Flag 
02:40PM EDT


 

Airport Tracker/Info


-or-


 

Live Flight TrackerFlight Track Log ✈ ASQ5685 ✈ 20-Jun-2013 ✈ KATL - KIAD

Flight Track Log - Related Links

Times and Time Zones

All times are in EDT time to prevent confusion due to time zone crossing. See the ASQ5685 flight status page for this flight to view local times or setup timezone preferences in your user account.

Time Position Orientation Groundspeed Altitude Reporting Facility
EDT Latitude Longitude Course Direction KTS MPH feet Rate Location/Type
09:23AM 33.6333 -84.3833 48° Northeast 164 189 2,400  Level Atlanta TRACON
09:24AM 33.6333 -84.3167 90° East 234 269 3,900 1,980 Climbing Atlanta TRACON
09:25AM 33.8479 -84.1770 73° East  Level Estimated
09:25AM 33.6333 -84.2333 90° East 261 300 6,400  Level Atlanta TRACON
09:26AM 33.9181 -84.0931 54° Northeast  Level Estimated
09:27AM 33.8988 -83.9762 101° East  Level FlightAware Approximate
09:27AM 33.6689 -84.0589 76° East 270 311 10,900  Level Atlanta Center
09:28AM 33.9697 -83.8931 48° Northeast  Level Estimated
09:28AM 33.7253 -83.9789 50° Northeast 294 338 12,000  Level Atlanta Center
09:29AM 33.7942 -83.8914 47° Northeast 337 388 12,900 960 Climbing Atlanta Center
09:30AM 33.8711 -83.7911 47° Northeast 356 410 14,000 1,140 Climbing Atlanta Center
09:31AM 33.9442 -83.6933 48° Northeast 379 436 15,200 1,140 Climbing Atlanta Center
09:32AM 34.0083 -83.5878 54° Northeast 386 444 16,300 1,020 Climbing Atlanta Center
09:33AM 34.0769 -83.4794 53° Northeast 391 450 17,300 840 Climbing Atlanta Center
09:34AM 34.1453 -83.3736 52° Northeast 391 450 18,000 780 Climbing Atlanta Center
09:35AM 34.2133 -83.2625 53° Northeast 403 464 18,900 900 Climbing Atlanta Center
09:36AM 34.2836 -83.1514 53° Northeast 409 471 19,800 900 Climbing Atlanta Center
09:37AM 34.3517 -83.0400 53° Northeast 414 476 20,700 780 Climbing Atlanta Center
09:38AM 34.4236 -82.9258 53° Northeast 414 476 21,400 600 Climbing Atlanta Center
09:39AM 34.4894 -82.8139 54° Northeast 414 476 22,000 540 Climbing Atlanta Center
09:40AM 34.5592 -82.6969 54° Northeast 419 482 22,500 480 Climbing Atlanta Center
09:41AM 34.6331 -82.5847 51° Northeast 424 488 23,000 480 Climbing Atlanta Center
09:42AM 34.7047 -82.4747 52° Northeast 418 481 23,500 480 Climbing Atlanta Center
09:43AM 34.7761 -82.3547 54° Northeast 423 487 24,000 480 Climbing Atlanta Center
09:44AM 34.8475 -82.2367 54° Northeast 423 487 24,500 480 Climbing Atlanta Center
09:45AM 34.9186 -82.1186 54° Northeast 423 487 25,000 540 Climbing Atlanta Center
09:46AM 34.9919 -82.0028 52° Northeast 423 487 25,600 420 Climbing Atlanta Center
09:47AM 35.0631 -81.8869 53° Northeast 423 487 25,900 420 Climbing Atlanta Center
09:48AM 35.1194 -81.7711 59° Northeast 423 487 26,500 540 Climbing Atlanta Center
09:49AM 35.1839 -81.6475 57° Northeast 428 493 27,000 480 Climbing Atlanta Center
09:50AM 35.2481 -81.5236 58° Northeast 428 493 27,500 480 Climbing Atlanta Center
09:51AM 35.3122 -81.3994 58° Northeast 428 493 28,000 480 Climbing Atlanta Center
09:52AM 35.3761 -81.2725 58° Northeast 428 493 28,500 480 Climbing Atlanta Center
09:53AM 35.4400 -81.1456 58° Northeast 434 499 29,000 480 Climbing Atlanta Center
09:54AM 35.5081 -81.0181 57° Northeast 434 499 29,500 600 Climbing Atlanta Center
09:55AM 35.5736 -80.8931 57° Northeast 434 499 30,300 720 Climbing Atlanta Center
09:56AM 35.6372 -80.7731 57° Northeast 423 487 31,000 300 Climbing Atlanta Center
09:57AM 35.7028 -80.6478 57° Northeast 423 487 31,000  Level Atlanta Center
09:58AM 35.7681 -80.5197 58° Northeast 434 499 31,000  Level Atlanta Center
09:59AM 35.8350 -80.3861 58° Northeast 445 512 31,000  Level Atlanta Center
10:02AM 36.0106 -80.0472 57° Northeast 467 537 31,000  Level Washington Center
10:03AM 36.0822 -79.9150 56° Northeast 461 531 31,000  Level Washington Center
10:04AM 36.1600 -79.7803 54° Northeast 473 544 31,000  Level Washington Center
10:05AM 36.2394 -79.6506 53° Northeast 473 544 31,000  Level Washington Center
10:06AM 36.3183 -79.5439 47° Northeast 473 544 31,000  Level Washington Center
10:07AM 36.4056 -79.4219 48° Northeast 473 544 31,000  Level Washington Center
10:08AM 36.4950 -79.2997 48° Northeast 468 539 31,000  Level Washington Center
10:09AM 36.5800 -79.1822 48° Northeast 468 539 31,000 -600 Level Washington Center
10:10AM 36.6672 -79.0542 50° Northeast 473 544 29,900 -1,440 Descending Washington Center
10:11AM 36.7653 -78.9133 49° Northeast 473 544 28,200 -1,620 Descending Washington Center
10:12AM 36.8453 -78.8050 47° Northeast 468 539 26,700 -1,620 Descending Washington Center
10:13AM 36.9342 -78.6761 49° Northeast 462 532 25,100 -900 Descending Washington Center
10:14AM 37.0097 -78.5753 47° Northeast 444 511 25,000 -60 Descending Washington Center
10:15AM 37.0942 -78.4508 50° Northeast 430 495 25,000  Level Washington Center
10:16AM 37.1633 -78.3519 49° Northeast 424 488 25,000  Level Washington Center
10:17AM 37.2539 -78.2247 48° Northeast 424 488 25,000  Level Washington Center
10:18AM 37.3333 -78.1097 49° Northeast 430 495 25,000  Level Washington Center
10:19AM 37.4131 -77.9922 49° Northeast 430 495 25,000  Level Washington Center
10:20AM 37.4967 -77.8744 48° Northeast 435 501 25,000  Level Washington Center
10:21AM 37.5983 -77.7883 34° Northeast 435 501 25,000 -1,140 Level Washington Center
10:22AM 37.7039 -77.7258 25° Northeast 428 493 22,800 -2,820 Descending Washington Center
10:23AM 37.8092 -77.6656 24° Northeast 422 486 19,300 -3,360 Descending Washington Center
10:24AM 37.9103 -77.6053 25° Northeast 408 470 16,100 -3,060 Descending Washington Center
10:25AM 38.0050 -77.5472 26° Northeast 396 456 13,200 -2,340 Descending Washington Center
10:26AM 38.0914 -77.5019 22° Northeast 359 413 11,500 -1,620 Descending Washington Center
10:27AM 38.1650 -77.4564 26° Northeast 328 377 10,100 6,780 Descending Washington Center
10:28AM 38.2406 -77.4211 20° North 293 337 25,000 -120 Climbing Washington Center
10:29AM 38.3178 -77.4178 North 272 313 9,900 -8,220 Descending Washington Center
10:30AM 38.3931 -77.4036 North 272 313 8,800 -1,080 Descending Washington Center
10:31AM 38.4683 -77.3897 North 272 313 7,800 -1,020 Descending Washington Center
10:32AM 38.5417 -77.3756 North 272 313 6,800 -1,020 Descending Washington Center
10:33AM 38.6147 -77.3667 North 272 313 5,800 -900 Descending Washington Center
10:34AM 38.6919 -77.3631 North 272 313 5,000 -660 Descending Washington Center
10:35AM 38.7628 -77.3622 North 272 313 4,500 -480 Descending Washington Center
10:36AM 38.8667 -77.3500 North 275 316 4,000 -240 Descending Potomac TRACON
10:37AM 38.9500 -77.3500 360° North 278 320 4,000  Level Potomac TRACON
10:38AM 39.0167 -77.3500 360° North 262 302 4,000  Level Potomac TRACON